Time;durP1;ratioP1;P1;durP2;ratioP2;P2;SDS_P1;SDS_P2;PMS_P1;PMS_P2;Temp;Humidity;BMP_temperature;BMP_pressure;BME280_temperature;BME280_humidity;BME280_pressure;Samples;Min_cycle;Max_cycle;Signal;HPM_P1;HPM_P2
2023/12/27 00:01:02;;;;;;;9.23;4.35;;;;;;;6.89;100.00;101017.66;5041337;28;20095;-71
2023/12/27 00:03:31;;;;;;;9.43;5.20;;;;;;;6.86;100.00;101015.09;5038287;28;20049;-70
2023/12/27 00:05:59;;;;;;;9.80;5.18;;;;;;;6.76;100.00;101010.94;5037465;28;20429;-71
2023/12/27 00:08:27;;;;;;;11.82;5.63;;;;;;;6.74;100.00;101002.22;5037935;28;20053;-71
2023/12/27 00:10:54;;;;;;;8.95;5.20;;;;;;;6.87;100.00;101019.47;5037688;28;20544;-70
2023/12/27 00:13:23;;;;;;;14.48;5.78;;;;;;;6.94;100.00;101007.88;5030614;28;20042;-70
2023/12/27 00:15:51;;;;;;;12.73;5.82;;;;;;;7.12;100.00;101023.28;5035973;28;20043;-70
2023/12/27 00:18:19;;;;;;;10.68;5.03;;;;;;;7.05;100.00;101013.78;5040285;28;20064;-69
2023/12/27 00:20:47;;;;;;;10.32;5.20;;;;;;;7.07;100.00;101016.41;5032830;28;20034;-71
2023/12/27 00:23:15;;;;;;;9.98;4.95;;;;;;;7.08;100.00;101026.91;5032424;28;20832;-67
2023/12/27 00:25:43;;;;;;;9.88;5.30;;;;;;;7.09;100.00;101022.47;5042765;28;20060;-70
2023/12/27 00:28:11;;;;;;;12.02;5.63;;;;;;;7.09;100.00;101028.59;5049870;28;20109;-70
2023/12/27 00:30:40;;;;;;;10.00;4.95;;;;;;;7.09;100.00;101031.22;5045815;28;20037;-72
2023/12/27 00:33:08;;;;;;;12.35;5.43;;;;;;;7.03;100.00;101027.00;5037712;28;20052;-67
2023/12/27 00:35:36;;;;;;;7.53;5.00;;;;;;;7.02;100.00;101020.00;5040245;28;20053;-69
2023/12/27 00:38:04;;;;;;;11.65;5.72;;;;;;;6.98;100.00;101028.84;5050429;28;20042;-71
2023/12/27 00:40:32;;;;;;;9.43;5.47;;;;;;;6.85;100.00;101021.25;5043145;28;20397;-70
2023/12/27 00:43:00;;;;;;;11.38;6.15;;;;;;;6.81;100.00;101038.00;5032340;28;20068;-68
2023/12/27 00:45:27;;;;;;;8.15;4.85;;;;;;;6.75;100.00;101028.50;5033285;28;20481;-70
2023/12/27 00:47:56;;;;;;;10.35;5.55;;;;;;;6.66;100.00;101011.13;5043684;28;20036;-70
2023/12/27 00:50:25;;;;;;;11.32;6.10;;;;;;;6.80;100.00;101025.75;5039510;28;20045;-71
2023/12/27 00:52:52;;;;;;;9.63;5.55;;;;;;;6.82;100.00;101011.66;5035502;28;20145;-71
2023/12/27 00:55:20;;;;;;;14.05;7.00;;;;;;;6.83;100.00;101012.53;5027843;28;20091;-70
2023/12/27 00:57:48;;;;;;;12.13;5.53;;;;;;;6.74;100.00;101010.97;5036893;28;20052;-69
2023/12/27 01:00:17;;;;;;;9.63;5.53;;;;;;;6.79;100.00;101027.50;5039089;28;20040;-70
2023/12/27 01:02:44;;;;;;;15.20;6.03;;;;;;;6.73;100.00;101026.78;5032899;28;20052;-70
2023/12/27 01:05:14;;;;;;;12.65;5.88;;;;;;;6.52;100.00;101001.78;5026873;28;20045;-70
2023/12/27 01:07:42;;;;;;;9.52;5.45;;;;;;;6.66;100.00;101019.00;5036866;28;20049;-71
2023/12/27 01:10:10;;;;;;;12.18;5.80;;;;;;;6.57;100.00;101026.25;5043837;28;20047;-68
2023/12/27 01:12:37;;;;;;;9.32;5.25;;;;;;;6.37;100.00;101002.97;5034592;28;20132;-70
2023/12/27 01:15:06;;;;;;;9.15;5.47;;;;;;;6.10;100.00;100975.44;5025919;28;20124;-70
2023/12/27 01:17:34;;;;;;;13.98;5.70;;;;;;;6.32;100.00;101023.22;5037446;28;20067;-71
2023/12/27 01:20:02;;;;;;;8.38;5.07;;;;;;;6.28;100.00;101034.72;5033857;28;20077;-71
2023/12/27 01:22:31;;;;;;;11.50;5.28;;;;;;;6.30;100.00;101032.91;5046641;28;20400;-70
2023/12/27 01:24:58;;;;;;;10.75;5.72;;;;;;;6.25;100.00;101025.13;5026120;28;20049;-70
2023/12/27 01:27:27;;;;;;;13.30;5.85;;;;;;;6.09;100.00;101018.41;5049036;28;20589;-70
2023/12/27 01:29:55;;;;;;;11.18;5.70;;;;;;;6.13;100.00;101035.00;5031660;28;20584;-69
2023/12/27 01:32:23;;;;;;;9.80;5.32;;;;;;;6.09;100.00;101028.94;5041193;28;20033;-70
2023/12/27 01:34:51;;;;;;;11.52;6.60;;;;;;;5.99;100.00;101025.59;5026469;28;20556;-69
2023/12/27 01:37:19;;;;;;;14.07;6.18;;;;;;;6.00;100.00;101026.44;5040363;28;20030;-71
2023/12/27 01:39:48;;;;;;;11.70;6.32;;;;;;;5.99;100.00;101019.47;5041018;28;20065;-69
2023/12/27 01:42:16;;;;;;;16.70;6.25;;;;;;;5.89;100.00;101029.28;5059581;28;20514;-68
2023/12/27 01:44:44;;;;;;;11.68;5.97;;;;;;;5.83;100.00;101039.84;5023665;28;20096;-70
2023/12/27 01:47:13;;;;;;;11.25;5.80;;;;;;;5.79;100.00;101040.81;5041482;28;20038;-70
2023/12/27 01:49:41;;;;;;;10.50;5.97;;;;;;;5.64;100.00;101027.94;5039389;28;20041;-71
2023/12/27 01:52:10;;;;;;;14.40;6.50;;;;;;;5.68;100.00;101042.75;5043738;28;20048;-69
2023/12/27 01:54:39;;;;;;;13.23;6.68;;;;;;;5.67;100.00;101040.19;5027626;28;20033;-70
2023/12/27 01:57:08;;;;;;;12.57;6.32;;;;;;;5.65;100.00;101037.56;5033107;28;20045;-70
2023/12/27 01:59:36;;;;;;;14.07;7.05;;;;;;;5.70;100.00;101040.97;5035560;28;20140;-69
2023/12/27 02:02:04;;;;;;;14.10;6.28;;;;;;;5.54;100.00;101010.59;5034913;28;20154;-69
2023/12/27 02:04:32;;;;;;;12.88;6.32;;;;;;;5.62;100.00;101027.97;5031587;28;20441;-69
2023/12/27 02:07:00;;;;;;;12.95;5.90;;;;;;;5.75;100.00;101052.28;5037111;28;20039;-68
2023/12/27 02:09:29;;;;;;;15.50;6.85;;;;;;;5.64;100.00;101034.06;5037273;28;20067;-70
2023/12/27 02:11:56;;;;;;;10.80;5.72;;;;;;;5.78;100.00;101054.00;5045312;28;20041;-66
2023/12/27 02:14:25;;;;;;;15.00;6.70;;;;;;;5.68;100.00;101034.88;5036548;28;20069;-69
2023/12/27 02:16:53;;;;;;;14.38;6.28;;;;;;;5.80;100.00;101050.44;5038877;28;20037;-69
2023/12/27 02:19:25;;;;;;;10.07;6.30;;;;;;;5.82;100.00;101050.44;5039618;28;20045;-71
2023/12/27 02:21:53;;;;;;;14.82;6.60;;;;;;;5.54;100.00;100992.19;5036610;28;20103;-70
2023/12/27 02:24:22;;;;;;;14.15;6.28;;;;;;;5.88;100.00;101038.06;5033394;28;20929;-70
2023/12/27 02:26:51;;;;;;;13.00;6.03;;;;;;;5.94;100.00;101031.84;5033703;28;20064;-69
2023/12/27 02:29:19;;;;;;;11.07;5.75;;;;;;;5.87;100.00;101011.78;5033130;28;20042;-69
2023/12/27 02:31:47;;;;;;;12.63;6.10;;;;;;;5.85;100.00;101013.56;5045219;28;20051;-71
2023/12/27 02:34:15;;;;;;;14.43;6.50;;;;;;;5.71;100.00;101002.41;5033452;28;20055;-69
2023/12/27 02:36:43;;;;;;;10.00;5.97;;;;;;;5.71;100.00;101015.56;5033206;28;20037;-69
2023/12/27 02:39:11;;;;;;;17.58;6.63;;;;;;;5.73;100.00;101033.03;5042097;28;20136;-70
2023/12/27 02:41:39;;;;;;;12.95;6.55;;;;;;;5.62;100.00;101013.97;5041703;28;20520;-69
2023/12/27 02:44:08;;;;;;;12.73;6.03;;;;;;;5.64;100.00;101009.56;5029352;28;20068;-68
2023/12/27 02:46:36;;;;;;;11.20;5.13;;;;;;;5.74;100.00;101010.25;5030706;28;20672;-72
2023/12/27 02:49:04;;;;;;;11.98;5.82;;;;;;;5.65;100.00;101006.03;5037916;28;20136;-69
2023/12/27 02:51:31;;;;;;;15.43;5.88;;;;;;;5.64;100.00;101005.19;5039171;28;20079;-70
2023/12/27 02:53:59;;;;;;;15.23;6.18;;;;;;;5.59;100.00;101000.88;5027609;28;20045;-69
2023/12/27 02:56:27;;;;;;;12.23;5.93;;;;;;;5.57;100.00;100992.16;5030159;28;20045;-71
2023/12/27 02:58:55;;;;;;;13.20;6.20;;;;;;;5.62;100.00;101003.47;5027624;28;20079;-67
2023/12/27 03:01:25;;;;;;;10.15;5.93;;;;;;;5.73;100.00;101008.53;5039158;28;20061;-70
2023/12/27 03:03:53;;;;;;;13.83;6.37;;;;;;;5.72;100.00;100997.13;5035091;28;20051;-69
2023/12/27 03:06:21;;;;;;;13.35;5.97;;;;;;;5.82;100.00;101001.34;5026868;28;20525;-69
2023/12/27 03:08:51;;;;;;;14.75;5.72;;;;;;;5.81;100.00;100990.88;5036081;28;20045;-71
2023/12/27 03:11:19;;;;;;;15.23;6.60;;;;;;;5.80;100.00;100990.00;5028645;28;20449;-71
2023/12/27 03:13:47;;;;;;;12.23;6.10;;;;;;;5.78;100.00;100997.03;5030650;28;20111;-69
2023/12/27 03:16:18;;;;;;;13.73;6.20;;;;;;;5.59;100.00;100967.59;5025225;28;20735;-67
2023/12/27 03:18:48;;;;;;;16.33;6.50;;;;;;;5.78;100.00;100986.53;5034104;28;20033;-69
2023/12/27 03:21:16;;;;;;;12.27;6.55;;;;;;;5.82;100.00;100982.09;5039080;28;20048;-70
2023/12/27 03:23:44;;;;;;;11.50;6.00;;;;;;;5.86;100.00;100979.34;5040521;28;20040;-70
2023/12/27 03:26:12;;;;;;;14.07;6.65;;;;;;;5.88;100.00;100974.97;5029036;28;20048;-70
2023/12/27 03:28:40;;;;;;;14.52;6.82;;;;;;;5.74;100.00;100962.97;5034633;28;20041;-69
2023/12/27 03:31:08;;;;;;;14.98;7.07;;;;;;;5.84;100.00;100982.91;5033408;28;20049;-70
2023/12/27 03:33:36;;;;;;;11.10;6.50;;;;;;;5.80;100.00;100962.84;5041162;28;20092;-70
2023/12/27 03:36:06;;;;;;;14.77;7.22;;;;;;;5.87;100.00;100967.09;5027722;28;20046;-69
2023/12/27 03:38:33;;;;;;;16.95;7.05;;;;;;;5.77;100.00;100953.25;5034264;28;20144;-69
2023/12/27 03:41:02;;;;;;;17.17;7.30;;;;;;;5.96;100.00;100972.22;5055739;28;20041;-71
2023/12/27 03:43:30;;;;;;;18.55;7.07;;;;;;;6.03;100.00;100957.19;5036019;28;20072;-71
2023/12/27 03:45:59;;;;;;;12.35;7.00;;;;;;;5.89;100.00;100939.06;5023901;28;20494;-71
2023/12/27 03:48:27;;;;;;;12.82;7.30;;;;;;;6.05;100.00;100958.03;5029235;28;20049;-70
2023/12/27 03:50:55;;;;;;;16.77;7.00;;;;;;;5.97;100.00;100947.66;5034050;28;20048;-70
2023/12/27 03:53:24;;;;;;;13.43;6.93;;;;;;;5.98;100.00;100959.91;5038707;28;20071;-70
2023/12/27 03:55:51;;;;;;;14.50;6.65;;;;;;;5.95;100.00;100971.34;5023880;28;20061;-71
2023/12/27 03:58:19;;;;;;;12.40;6.25;;;;;;;5.92;100.00;100954.78;5032259;28;20045;-69
2023/12/27 04:00:47;;;;;;;18.08;7.85;;;;;;;5.84;100.00;100941.72;5034108;28;20033;-70
2023/12/27 04:03:15;;;;;;;12.75;7.30;;;;;;;5.98;100.00;100958.13;5038629;28;20120;-69
2023/12/27 04:05:43;;;;;;;13.63;7.32;;;;;;;5.99;100.00;100954.59;5025815;28;20041;-70
2023/12/27 04:08:11;;;;;;;12.63;7.50;;;;;;;5.99;100.00;100945.84;5024130;28;20056;-68
2023/12/27 04:10:40;;;;;;;15.30;8.35;;;;;;;6.05;100.00;100965.91;5032452;28;20072;-70
2023/12/27 04:13:07;;;;;;;12.52;8.15;;;;;;;6.09;100.00;100967.59;5036778;28;20041;-71
2023/12/27 04:15:35;;;;;;;15.55;8.93;;;;;;;6.14;100.00;100968.38;5030963;28;20041;-68
2023/12/27 04:18:07;;;;;;;13.57;7.93;;;;;;;6.07;100.00;100949.22;5040806;28;20067;-69
2023/12/27 04:20:35;;;;;;;19.00;11.07;;;;;;;6.21;100.00;100959.44;5037807;28;20136;-69
2023/12/27 04:23:03;;;;;;;15.35;8.18;;;;;;;6.15;100.00;100949.91;5056352;28;20064;-71
2023/12/27 04:25:31;;;;;;;15.73;8.50;;;;;;;6.22;100.00;100951.53;5026984;28;20053;-69
2023/12/27 04:28:02;;;;;;;16.05;8.57;;;;;;;6.22;100.00;100954.16;5034691;28;20033;-71
2023/12/27 04:30:30;;;;;;;12.27;6.82;;;;;;;6.15;100.00;100951.66;5037986;28;20469;-70
2023/12/27 04:32:58;;;;;;;15.00;7.90;;;;;;;6.08;100.00;100961.47;5041167;28;20056;-69
2023/12/27 04:35:26;;;;;;;12.10;6.40;;;;;;;6.00;100.00;100955.47;5024776;28;20052;-70
2023/12/27 04:37:54;;;;;;;13.27;6.82;;;;;;;5.83;100.00;100932.09;5036998;28;20462;-69
2023/12/27 04:40:23;;;;;;;16.55;6.90;;;;;;;5.94;100.00;100966.13;5041126;28;20079;-70
2023/12/27 04:42:51;;;;;;;12.07;6.47;;;;;;;5.92;100.00;100968.78;5042292;28;20513;-67
2023/12/27 04:45:21;;;;;;;12.07;6.68;;;;;;;5.92;100.00;100967.91;5024662;28;20124;-71
2023/12/27 04:47:50;;;;;;;15.10;7.32;;;;;;;5.69;100.00;100934.13;5032093;28;20058;-69
2023/12/27 04:50:16;;;;;;;12.80;7.18;;;;;;;5.88;100.00;100966.19;5035314;28;20049;-71
2023/12/27 04:52:44;;;;;;;18.60;6.93;;;;;;;5.85;100.00;100971.50;5035984;28;20502;-70
2023/12/27 04:55:12;;;;;;;18.48;7.88;;;;;;;5.77;100.00;100955.88;5031820;28;20071;-68
2023/12/27 04:57:40;;;;;;;14.75;7.07;;;;;;;5.84;100.00;100975.03;5039767;28;20087;-70
2023/12/27 05:00:09;;;;;;;16.85;6.80;;;;;;;5.84;100.00;100964.50;5034569;28;20065;-69
2023/12/27 05:02:38;;;;;;;15.00;6.72;;;;;;;5.93;100.00;100962.63;5041442;28;20042;-69
2023/12/27 05:05:08;;;;;;;18.92;7.10;;;;;;;5.83;100.00;100953.13;5030258;28;20190;-68
2023/12/27 05:07:36;;;;;;;15.75;7.68;;;;;;;5.85;100.00;100956.59;5034880;28;20964;-69
2023/12/27 05:10:04;;;;;;;15.98;6.97;;;;;;;5.81;100.00;100946.19;5039296;28;20041;-69
2023/12/27 05:12:32;;;;;;;14.38;7.13;;;;;;;5.90;100.00;100957.41;5036324;28;20486;-70
2023/12/27 05:15:00;;;;;;;15.32;7.60;;;;;;;5.95;100.00;100963.47;5028042;28;20127;-68
2023/12/27 05:17:28;;;;;;;15.25;7.32;;;;;;;5.97;100.00;100963.44;5029416;28;20045;-69
2023/12/27 05:19:59;;;;;;;15.90;6.55;;;;;;;5.81;100.00;100933.91;5035185;28;20604;-69
2023/12/27 05:22:27;;;;;;;11.82;6.90;;;;;;;5.86;100.00;100942.56;5040469;28;20060;-70
2023/12/27 05:24:56;;;;;;;14.13;7.45;;;;;;;6.06;100.00;100949.25;5042873;28;20037;-71
2023/12/27 05:27:23;;;;;;;11.88;6.57;;;;;;;6.11;100.00;100952.66;5035717;28;20072;-69
2023/12/27 05:29:51;;;;;;;17.02;7.32;;;;;;;6.10;100.00;100943.91;5035128;28;20144;-70
2023/12/27 05:32:19;;;;;;;13.93;6.13;;;;;;;6.11;100.00;100943.00;5036553;28;20049;-69
2023/12/27 05:34:46;;;;;;;15.48;7.05;;;;;;;6.15;100.00;100949.91;5035339;28;20045;-68
2023/12/27 05:37:15;;;;;;;14.27;6.82;;;;;;;6.11;100.00;100915.84;5032809;28;20048;-70
2023/12/27 05:39:43;;;;;;;13.13;6.85;;;;;;;6.20;100.00;100936.69;5038031;28;20037;-70
2023/12/27 05:42:13;;;;;;;12.85;7.13;;;;;;;6.17;100.00;100932.34;5036435;28;20059;-70
2023/12/27 05:44:41;;;;;;;14.93;7.40;;;;;;;6.16;100.00;100941.13;5036507;28;20038;-70
2023/12/27 05:47:09;;;;;;;12.23;6.45;;;;;;;6.14;100.00;100942.09;5028778;28;20052;-69
2023/12/27 05:49:37;;;;;;;14.20;6.60;;;;;;;6.13;100.00;100940.34;5037118;28;20041;-70
2023/12/27 05:52:07;;;;;;;15.45;6.65;;;;;;;6.06;100.00;100928.22;5037762;28;20041;-70
2023/12/27 05:54:36;;;;;;;14.33;7.67;;;;;;;5.97;100.00;100914.38;5039966;28;20136;-69
2023/12/27 05:57:04;;;;;;;12.73;6.28;;;;;;;6.08;100.00;100936.94;5032526;28;20108;-70
2023/12/27 05:59:32;;;;;;;15.07;6.82;;;;;;;6.08;100.00;100936.94;5042286;28;20045;-70
2023/12/27 06:02:00;;;;;;;14.02;6.93;;;;;;;6.06;100.00;100939.59;5040237;28;20056;-70
2023/12/27 06:04:28;;;;;;;17.08;6.70;;;;;;;5.91;100.00;100910.97;5031176;28;20112;-70
2023/12/27 06:06:55;;;;;;;13.20;6.47;;;;;;;6.01;100.00;100933.53;5030385;28;20166;-70
2023/12/27 06:09:24;;;;;;;12.00;6.10;;;;;;;5.95;100.00;100928.44;5036004;28;20081;-70
2023/12/27 06:11:53;;;;;;;16.60;6.75;;;;;;;5.93;100.00;100928.47;5032646;28;20049;-69
2023/12/27 06:14:21;;;;;;;11.80;6.43;;;;;;;5.87;100.00;100922.41;5034252;28;20034;-69
2023/12/27 06:16:48;;;;;;;16.88;6.90;;;;;;;5.88;100.00;100926.78;5022403;28;20047;-69
2023/12/27 06:19:17;;;;;;;14.45;6.95;;;;;;;5.82;100.00;100917.25;5045158;28;20123;-67
2023/12/27 06:21:44;;;;;;;14.75;6.70;;;;;;;5.90;100.00;100930.28;5033252;28;20065;-69
2023/12/27 06:24:12;;;;;;;10.32;6.57;;;;;;;5.91;100.00;100938.13;5033067;28;20045;-71
2023/12/27 06:26:40;;;;;;;15.23;6.88;;;;;;;5.96;100.00;100931.03;5026147;28;20042;-69
2023/12/27 06:29:09;;;;;;;10.00;5.90;;;;;;;5.98;100.00;100936.25;5038592;28;20114;-70
2023/12/27 06:31:37;;;;;;;12.70;6.38;;;;;;;5.96;100.00;100949.44;5037160;28;20052;-69
2023/12/27 06:34:05;;;;;;;12.77;6.30;;;;;;;5.95;100.00;100942.44;5043090;28;20045;-68
2023/12/27 06:36:33;;;;;;;12.88;6.60;;;;;;;5.92;100.00;100944.25;5028221;28;20045;-70
2023/12/27 06:39:01;;;;;;;12.32;6.93;;;;;;;5.89;100.00;100941.69;5042401;28;20045;-70
2023/12/27 06:41:29;;;;;;;16.02;6.78;;;;;;;5.86;100.00;100939.06;5036855;28;20042;-70
2023/12/27 06:43:57;;;;;;;15.13;7.22;;;;;;;5.84;100.00;100941.72;5034059;28;20049;-71
2023/12/27 06:46:26;;;;;;;18.33;7.47;;;;;;;5.82;100.00;100943.53;5029165;28;20053;-70
2023/12/27 06:48:54;;;;;;;11.55;7.53;;;;;;;5.83;100.00;100937.34;5045332;28;20041;-71
2023/12/27 06:51:22;;;;;;;16.40;7.65;;;;;;;5.71;100.00;100915.72;5038843;28;20052;-68
2023/12/27 06:53:50;;;;;;;15.82;7.40;;;;;;;5.83;100.00;100942.63;5040141;28;20055;-71
2023/12/27 06:56:18;;;;;;;18.20;7.53;;;;;;;5.72;100.00;100920.06;5028467;28;20045;-69
2023/12/27 06:58:46;;;;;;;18.40;8.50;;;;;;;5.82;100.00;100940.03;5036096;28;20101;-70
2023/12/27 07:01:15;;;;;;;21.52;8.48;;;;;;;5.76;100.00;100922.63;5041169;28;20510;-70
2023/12/27 07:03:44;;;;;;;18.83;8.57;;;;;;;5.84;100.00;100933.84;5035738;28;20056;-67
2023/12/27 07:06:12;;;;;;;22.90;9.20;;;;;;;5.79;100.00;100935.72;5038652;28;20079;-70
2023/12/27 07:08:40;;;;;;;25.23;9.60;;;;;;;5.76;100.00;100941.00;5046674;28;20050;-70
2023/12/27 07:11:07;;;;;;;23.92;9.65;;;;;;;5.70;100.00;100937.63;5039854;28;20048;-69
2023/12/27 07:13:34;;;;;;;20.80;9.18;;;;;;;5.69;100.00;100920.13;5032084;28;20110;-69
2023/12/27 07:16:04;;;;;;;21.42;9.20;;;;;;;5.83;100.00;100932.09;5031902;28;20153;-69
2023/12/27 07:18:31;;;;;;;21.80;10.07;;;;;;;5.97;100.00;100934.53;5037689;28;20048;-71
2023/12/27 07:21:01;;;;;;;22.92;9.60;;;;;;;6.01;100.00;100930.06;5034548;28;20041;-70
2023/12/27 07:23:29;;;;;;;20.75;9.95;;;;;;;5.98;100.00;100926.56;5034174;28;20053;-70
2023/12/27 07:25:59;;;;;;;25.05;11.27;;;;;;;6.03;100.00;100926.50;5027532;28;20046;-69
2023/12/27 07:28:27;;;;;;;19.67;9.40;;;;;;;6.08;100.00;100915.91;5026147;28;20049;-71
2023/12/27 07:30:55;;;;;;;16.92;9.32;;;;;;;6.08;100.00;100910.66;5036889;28;20121;-70
2023/12/27 07:33:22;;;;;;;27.33;10.82;;;;;;;6.16;100.00;100917.47;5031815;28;20759;-70
2023/12/27 07:35:50;;;;;;;27.42;10.82;;;;;;;6.16;100.00;100922.72;5034395;28;20099;-70
2023/12/27 07:38:20;;;;;;;22.40;10.77;;;;;;;6.08;100.00;100926.41;5035432;28;20068;-68
2023/12/27 07:40:47;;;;;;;23.48;11.27;;;;;;;6.13;100.00;100945.59;5034707;28;20038;-68
2023/12/27 07:43:15;;;;;;;26.23;11.60;;;;;;;6.13;100.00;100954.38;5030818;28;20045;-69
2023/12/27 07:45:44;;;;;;;31.80;12.52;;;;;;;6.12;100.00;100951.75;5030941;28;20071;-71
2023/12/27 07:48:11;;;;;;;24.00;12.38;;;;;;;6.14;100.00;100942.09;5033053;28;20212;-70
2023/12/27 07:50:40;;;;;;;24.88;11.80;;;;;;;6.12;100.00;100935.97;5035759;28;20037;-70
2023/12/27 07:53:07;;;;;;;23.50;12.27;;;;;;;6.06;100.00;100909.81;5038485;28;20044;-70
2023/12/27 07:55:37;;;;;;;23.25;12.52;;;;;;;6.21;100.00;100927.91;5042074;28;20095;-70
2023/12/27 07:58:05;;;;;;;21.42;11.73;;;;;;;6.24;100.00;100919.94;5032230;28;20510;-72
2023/12/27 08:00:33;;;;;;;21.60;11.23;;;;;;;6.43;100.00;100918.66;5045539;28;20394;-70
2023/12/27 08:03:04;;;;;;;19.70;11.82;;;;;;;6.47;100.00;100906.28;5041138;28;20077;-70
2023/12/27 08:05:32;;;;;;;24.75;12.02;;;;;;;6.56;100.00;100912.22;5034861;28;20041;-71
2023/12/27 08:08:00;;;;;;;25.58;13.05;;;;;;;6.65;100.00;100913.78;5025218;28;20144;-69
2023/12/27 08:10:27;;;;;;;22.38;11.63;;;;;;;6.59;100.00;100882.34;5036573;28;20318;-69
2023/12/27 08:12:56;;;;;;;22.23;11.65;;;;;;;6.71;100.00;100894.34;5041744;28;20038;-69
2023/12/27 08:15:24;;;;;;;17.77;10.13;;;;;;;6.77;100.00;100886.34;5032628;28;20053;-66
2023/12/27 08:17:54;;;;;;;17.80;10.43;;;;;;;6.71;100.00;100865.41;5029732;28;20056;-70
2023/12/27 08:20:22;;;;;;;22.95;11.52;;;;;;;6.85;100.00;100873.84;5037625;28;20482;-70
2023/12/27 08:22:52;;;;;;;23.40;11.57;;;;;;;6.88;100.00;100874.63;5040994;28;20139;-70
2023/12/27 08:25:20;;;;;;;18.50;11.00;;;;;;;6.92;100.00;100870.16;5033304;28;20072;-70
2023/12/27 08:27:48;;;;;;;18.35;10.50;;;;;;;6.93;100.00;100864.84;5026525;28;20048;-70
2023/12/27 08:30:17;;;;;;;18.70;11.45;;;;;;;6.97;100.00;100863.00;5034775;28;20351;-71
2023/12/27 08:32:46;;;;;;;19.57;10.53;;;;;;;7.12;100.00;100881.06;5040741;28;20463;-71
2023/12/27 08:35:14;;;;;;;16.10;10.13;;;;;;;7.17;100.00;100880.94;5034140;28;20507;-70
2023/12/27 08:37:46;;;;;;;20.92;11.50;;;;;;;7.29;100.00;100878.00;5025958;28;20049;-69
2023/12/27 08:40:14;;;;;;;19.08;10.80;;;;;;;7.37;100.00;100863.72;5038443;28;20045;-70
2023/12/27 08:42:42;;;;;;;17.27;11.30;;;;;;;7.45;100.00;100841.56;5038637;28;20528;-70
2023/12/27 08:45:11;;;;;;;20.08;11.10;;;;;;;7.60;100.00;100834.09;5038088;28;20490;-70
2023/12/27 08:47:40;;;;;;;16.65;9.80;;;;;;;7.67;100.00;100819.00;5026478;28;20053;-70
2023/12/27 08:50:09;;;;;;;16.90;10.60;;;;;;;7.84;100.00;100832.56;5036430;28;20838;-69
2023/12/27 08:52:38;;;;;;;14.10;9.45;;;;;;;7.83;100.00;100816.78;5041978;28;20128;-69
2023/12/27 08:55:08;;;;;;;14.82;9.52;;;;;;;8.00;100.00;100832.97;5035114;28;20079;-71
2023/12/27 08:57:36;;;;;;;14.57;8.85;;;;;;;8.09;100.00;100832.69;5028451;28;20060;-72
2023/12/27 09:00:07;;;;;;;13.30;8.40;;;;;;;8.08;100.00;100823.91;5034887;28;20099;-71
2023/12/27 09:02:35;;;;;;;15.20;9.43;;;;;;;8.20;100.00;100856.97;5038423;28;20191;-69
2023/12/27 09:05:05;;;;;;;17.63;8.77;;;;;;;8.20;100.00;100853.47;5036657;28;20048;-70
2023/12/27 09:07:33;;;;;;;12.25;8.48;;;;;;;8.13;100.00;100844.91;5026036;28;20059;-72
2023/12/27 09:10:02;;;;;;;16.85;9.25;;;;;;;8.16;100.00;100854.50;5037837;28;20034;-72
2023/12/27 09:12:29;;;;;;;12.50;8.45;;;;;;;8.26;100.00;100875.28;5039506;28;20076;-71
2023/12/27 09:14:57;;;;;;;12.43;7.43;;;;;;;8.35;100.00;100880.28;5043712;28;20425;-70
2023/12/27 09:17:25;;;;;;;12.25;7.72;;;;;;;8.41;100.00;100882.75;5026881;28;20301;-71
2023/12/27 09:19:53;;;;;;;12.88;7.30;;;;;;;8.47;100.00;100873.81;5035447;28;20049;-71
2023/12/27 09:22:22;;;;;;;9.55;6.82;;;;;;;8.51;100.00;100867.50;5041967;28;20087;-70
2023/12/27 09:24:49;;;;;;;9.30;6.57;;;;;;;8.53;100.00;100855.13;5042930;28;20091;-68
2023/12/27 09:27:17;;;;;;;11.52;6.55;;;;;;;8.67;100.00;100874.03;5026354;28;20045;-70
2023/12/27 09:29:45;;;;;;;11.43;6.65;;;;;;;8.66;100.00;100845.03;5042524;28;20052;-69
2023/12/27 09:32:13;;;;;;;10.65;5.70;;;;;;;8.83;100.00;100863.84;5051927;28;20049;-68
2023/12/27 09:34:41;;;;;;;9.95;5.90;;;;;;;8.92;100.00;100854.78;5062632;28;20043;-68
2023/12/27 09:37:11;;;;;;;9.70;5.40;;;;;;;9.03;100.00;100840.28;5030772;28;20051;-70
2023/12/27 09:39:41;;;;;;;9.35;5.60;;;;;;;9.11;100.00;100827.69;5039708;28;20044;-71
2023/12/27 09:42:09;;;;;;;10.90;5.53;;;;;;;9.34;100.00;100833.94;5038538;28;20371;-70
2023/12/27 09:44:39;;;;;;;9.43;4.85;;;;;;;9.39;100.00;100803.81;5033823;28;20069;-68
2023/12/27 09:47:10;;;;;;;10.15;5.18;;;;;;;9.74;100.00;100828.97;5014825;28;20053;-71
2023/12/27 09:49:38;;;;;;;9.48;5.13;;;;;;;9.89;100.00;100832.84;5024197;28;20049;-71
2023/12/27 09:52:08;;;;;;;7.20;4.22;;;;;;;9.93;100.00;100822.97;5037863;28;20037;-71
2023/12/27 09:54:36;;;;;;;10.13;4.50;;;;;;;9.92;100.00;100813.31;5043074;28;20081;-68
2023/12/27 09:57:06;;;;;;;8.85;4.15;;;;;;;9.95;100.00;100811.44;5031217;28;20555;-68
2023/12/27 09:59:39;;;;;;;9.52;4.30;;;;;;;10.02;100.00;100806.78;5036620;28;20086;-71
2023/12/27 10:02:14;;;;;;;9.30;4.15;;;;;;;9.99;100.00;100772.50;5039965;28;20033;-72
2023/12/27 10:04:48;;;;;;;9.18;4.18;;;;;;;10.10;100.00;100797.63;5048089;28;20042;-69
2023/12/27 10:07:18;;;;;;;9.27;4.05;;;;;;;10.09;100.00;100787.94;5029032;28;20104;-70
2023/12/27 10:09:47;;;;;;;6.07;4.10;;;;;;;10.03;100.00;100767.03;5040318;28;20072;-71
2023/12/27 10:12:17;;;;;;;8.60;4.18;;;;;;;10.00;100.00;100772.44;5044091;28;20060;-70
2023/12/27 10:14:46;;;;;;;6.13;4.30;;;;;;;9.96;100.00;100781.41;5045051;28;20045;-70
2023/12/27 10:17:14;;;;;;;5.88;3.97;;;;;;;9.94;100.00;100783.25;5028652;28;20482;-71
2023/12/27 10:19:43;;;;;;;7.95;3.70;;;;;;;9.91;100.00;100777.22;5031419;28;20081;-72
2023/12/27 10:22:12;;;;;;;6.10;3.30;;;;;;;9.84;100.00;100782.75;5037285;28;20037;-70
2023/12/27 10:24:40;;;;;;;6.43;3.63;;;;;;;9.75;100.00;100782.25;5055519;28;20053;-69
2023/12/27 10:27:10;;;;;;;7.00;3.28;;;;;;;9.77;100.00;100783.00;5040866;28;20053;-68
2023/12/27 10:29:47;;;;;;;8.43;3.58;;;;;;;9.74;100.00;100785.81;5043039;28;20060;-69
2023/12/27 10:32:17;;;;;;;6.57;3.22;;;;;;;9.71;100.00;100777.97;5047669;28;20041;-70
2023/12/27 10:34:45;;;;;;;8.57;3.35;;;;;;;9.73;100.00;100779.66;5035476;28;20530;-69
2023/12/27 10:37:14;;;;;;;7.32;2.70;;;;;;;9.70;100.00;100749.81;5031511;28;20045;-70
2023/12/27 10:39:45;;;;;;;7.70;2.80;;;;;;;9.86;100.00;100764.19;5036593;28;20041;-72
2023/12/27 10:42:16;;;;;;;6.00;2.35;;;;;;;9.89;100.00;100752.63;5041918;28;20040;-70
2023/12/27 10:44:45;;;;;;;9.25;2.50;;;;;;;9.66;100.00;100725.25;5041115;28;20037;-71
2023/12/27 10:47:17;;;;;;;5.60;2.38;;;;;;;9.85;100.00;100734.22;5038102;28;20045;-69
2023/12/27 10:49:47;;;;;;;6.88;2.53;;;;;;;9.94;100.00;100711.81;5030080;28;20733;-69
2023/12/27 10:52:16;;;;;;;4.90;2.40;;;;;;;9.90;100.00;100702.31;5037091;28;20041;-72
2023/12/27 10:54:45;;;;;;;7.40;2.47;;;;;;;9.94;100.00;100713.59;5042530;28;20276;-70
2023/12/27 10:57:18;;;;;;;3.88;1.80;;;;;;;9.93;100.00;100707.44;5035915;28;20041;-70
2023/12/27 10:59:48;;;;;;;7.28;2.13;;;;;;;9.91;100.00;100704.03;5038231;28;20099;-70
2023/12/27 11:02:19;;;;;;;7.60;2.10;;;;;;;9.88;100.00;100703.28;5036909;28;20049;-71
2023/12/27 11:04:48;;;;;;;3.47;2.22;;;;;;;9.81;100.00;100708.78;5033591;28;20049;-70
2023/12/27 11:07:18;;;;;;;8.00;2.60;;;;;;;9.59;100.00;100701.75;5030591;28;20041;-70
2023/12/27 11:09:47;;;;;;;;;;;;;;;9.49;100.00;100678.31;5029027;28;20064;-70
2023/12/27 11:12:19;;;;;;;6.25;2.03;;;;;;;9.61;100.00;100705.19;5034340;28;19925;-72
2023/12/27 11:14:49;;;;;;;6.82;2.10;;;;;;;9.61;100.00;100697.25;5037583;28;20037;-69
2023/12/27 11:17:20;;;;;;;6.80;2.10;;;;;;;9.57;100.00;100679.81;5031031;28;20073;-69
2023/12/27 11:19:50;;;;;;;;;;;;;;;9.67;100.00;100683.81;5031125;28;20101;-69
2023/12/27 11:22:18;;;;;;;5.28;2.30;;;;;;;9.73;100.00;100670.34;5035162;28;19960;-69
2023/12/27 11:24:48;;;;;;;6.18;2.75;;;;;;;9.83;100.00;100661.13;5041563;28;20069;-69